sensor_id;sensor_type;location;lat;lon;timestamp;pressure;altitude;pressure_sealevel;temperature;humidity
62124;BME280;48110;47.532;19.078;2022-07-06T00:00:38;100221.69;;;17.41;100.00
62124;BME280;48110;47.532;19.078;2022-07-06T00:03:40;100238.22;;;17.37;100.00
62124;BME280;48110;47.532;19.078;2022-07-06T00:06:44;100239.44;;;17.35;100.00
62124;BME280;48110;47.532;19.078;2022-07-06T00:09:46;100235.56;;;17.31;100.00
62124;BME280;48110;47.532;19.078;2022-07-06T00:12:49;100230.16;;;17.37;100.00
62124;BME280;48110;47.532;19.078;2022-07-06T00:15:52;100218.03;;;17.28;100.00
62124;BME280;48110;47.532;19.078;2022-07-06T00:18:54;100225.84;;;17.30;100.00
62124;BME280;48110;47.532;19.078;2022-07-06T00:21:57;100226.72;;;17.24;100.00
62124;BME280;48110;47.532;19.078;2022-07-06T00:24:59;100226.53;;;17.19;100.00
62124;BME280;48110;47.532;19.078;2022-07-06T00:28:03;100217.47;;;17.20;100.00
62124;BME280;48110;47.532;19.078;2022-07-06T00:31:05;100223.25;;;17.17;100.00
62124;BME280;48110;47.532;19.078;2022-07-06T00:34:08;100229.66;;;17.16;100.00
62124;BME280;48110;47.532;19.078;2022-07-06T00:37:11;100225.94;;;17.17;100.00
62124;BME280;48110;47.532;19.078;2022-07-06T00:40:14;100227.00;;;17.09;100.00
62124;BME280;48110;47.532;19.078;2022-07-06T00:43:16;100238.53;;;17.10;100.00
62124;BME280;48110;47.532;19.078;2022-07-06T00:46:22;100231.56;;;17.09;100.00
62124;BME280;48110;47.532;19.078;2022-07-06T00:49:26;100239.59;;;17.09;100.00
62124;BME280;48110;47.532;19.078;2022-07-06T00:52:50;100228.25;;;17.07;100.00
62124;BME280;48110;47.532;19.078;2022-07-06T00:55:52;100226.00;;;17.04;100.00
62124;BME280;48110;47.532;19.078;2022-07-06T00:58:55;100228.88;;;17.09;100.00
62124;BME280;48110;47.532;19.078;2022-07-06T01:01:58;100223.09;;;17.05;100.00
62124;BME280;48110;47.532;19.078;2022-07-06T01:05:04;100224.94;;;17.05;100.00
62124;BME280;48110;47.532;19.078;2022-07-06T01:08:07;100221.50;;;16.98;100.00
62124;BME280;48110;47.532;19.078;2022-07-06T01:11:10;100226.22;;;17.02;100.00
62124;BME280;48110;47.532;19.078;2022-07-06T01:14:14;100224.59;;;16.94;100.00
62124;BME280;48110;47.532;19.078;2022-07-06T01:17:17;100221.91;;;16.94;100.00
62124;BME280;48110;47.532;19.078;2022-07-06T01:20:22;100222.72;;;16.95;100.00
62124;BME280;48110;47.532;19.078;2022-07-06T01:23:25;100222.97;;;16.93;100.00
62124;BME280;48110;47.532;19.078;2022-07-06T01:26:28;100228.31;;;16.93;100.00
62124;BME280;48110;47.532;19.078;2022-07-06T01:29:31;100222.12;;;16.93;100.00
62124;BME280;48110;47.532;19.078;2022-07-06T01:32:35;100213.84;;;17.01;100.00
62124;BME280;48110;47.532;19.078;2022-07-06T01:35:38;100218.44;;;16.94;100.00
62124;BME280;48110;47.532;19.078;2022-07-06T01:41:48;100222.53;;;16.90;100.00
62124;BME280;48110;47.532;19.078;2022-07-06T01:44:50;100219.87;;;16.90;100.00
62124;BME280;48110;47.532;19.078;2022-07-06T01:47:59;100235.53;;;16.93;100.00
62124;BME280;48110;47.532;19.078;2022-07-06T01:51:03;100235.94;;;16.90;100.00
62124;BME280;48110;47.532;19.078;2022-07-06T01:54:07;100234.53;;;16.87;100.00
62124;BME280;48110;47.532;19.078;2022-07-06T01:57:10;100243.19;;;16.83;100.00
62124;BME280;48110;47.532;19.078;2022-07-06T02:00:13;100245.06;;;16.82;100.00
62124;BME280;48110;47.532;19.078;2022-07-06T02:03:18;100238.03;;;16.88;100.00
62124;BME280;48110;47.532;19.078;2022-07-06T02:06:20;100249.16;;;16.85;100.00
62124;BME280;48110;47.532;19.078;2022-07-06T02:09:23;100227.72;;;16.85;100.00
62124;BME280;48110;47.532;19.078;2022-07-06T02:12:26;100231.19;;;16.92;100.00
62124;BME280;48110;47.532;19.078;2022-07-06T02:15:29;100233.25;;;16.90;100.00
62124;BME280;48110;47.532;19.078;2022-07-06T02:18:31;100239.25;;;16.85;100.00
62124;BME280;48110;47.532;19.078;2022-07-06T02:21:35;100248.75;;;16.88;100.00
62124;BME280;48110;47.532;19.078;2022-07-06T02:24:37;100248.13;;;16.86;100.00
62124;BME280;48110;47.532;19.078;2022-07-06T02:27:40;100248.34;;;16.84;100.00
62124;BME280;48110;47.532;19.078;2022-07-06T02:30:43;100254.31;;;16.80;100.00
62124;BME280;48110;47.532;19.078;2022-07-06T02:33:46;100262.34;;;16.80;100.00
62124;BME280;48110;47.532;19.078;2022-07-06T02:36:49;100259.47;;;16.81;100.00
62124;BME280;48110;47.532;19.078;2022-07-06T02:39:52;100251.88;;;16.78;100.00
62124;BME280;48110;47.532;19.078;2022-07-06T02:42:54;100251.88;;;16.72;100.00
62124;BME280;48110;47.532;19.078;2022-07-06T02:45:58;100250.84;;;16.73;100.00
62124;BME280;48110;47.532;19.078;2022-07-06T02:49:01;100258.69;;;16.68;100.00
62124;BME280;48110;47.532;19.078;2022-07-06T02:52:04;100260.94;;;16.71;100.00
62124;BME280;48110;47.532;19.078;2022-07-06T02:55:07;100257.87;;;16.67;100.00
62124;BME280;48110;47.532;19.078;2022-07-06T02:58:10;100259.12;;;16.65;100.00
62124;BME280;48110;47.532;19.078;2022-07-06T03:01:13;100265.09;;;16.67;100.00
62124;BME280;48110;47.532;19.078;2022-07-06T03:04:16;100272.91;;;16.68;100.00
62124;BME280;48110;47.532;19.078;2022-07-06T03:07:19;100281.53;;;16.70;100.00
62124;BME280;48110;47.532;19.078;2022-07-06T03:10:23;100292.06;;;16.72;100.00
62124;BME280;48110;47.532;19.078;2022-07-06T03:13:26;100294.34;;;16.68;100.00
62124;BME280;48110;47.532;19.078;2022-07-06T03:16:29;100290.22;;;16.72;100.00
62124;BME280;48110;47.532;19.078;2022-07-06T03:19:32;100304.44;;;16.73;100.00
62124;BME280;48110;47.532;19.078;2022-07-06T03:22:35;100306.28;;;16.79;100.00
62124;BME280;48110;47.532;19.078;2022-07-06T03:25:39;100307.09;;;16.73;100.00
62124;BME280;48110;47.532;19.078;2022-07-06T03:28:42;100305.84;;;16.75;100.00
62124;BME280;48110;47.532;19.078;2022-07-06T03:31:45;100306.72;;;16.69;100.00
62124;BME280;48110;47.532;19.078;2022-07-06T03:34:48;100310.63;;;16.67;100.00
62124;BME280;48110;47.532;19.078;2022-07-06T03:37:51;100317.81;;;16.66;100.00
62124;BME280;48110;47.532;19.078;2022-07-06T03:40:54;100304.03;;;16.63;100.00
62124;BME280;48110;47.532;19.078;2022-07-06T03:43:57;100315.56;;;16.63;100.00
62124;BME280;48110;47.532;19.078;2022-07-06T03:47:01;100318.44;;;16.62;100.00
62124;BME280;48110;47.532;19.078;2022-07-06T03:50:04;100309.34;;;16.56;100.00
62124;BME280;48110;47.532;19.078;2022-07-06T03:53:07;100318.06;;;16.58;100.00
62124;BME280;48110;47.532;19.078;2022-07-06T03:56:10;100303.41;;;16.61;100.00
62124;BME280;48110;47.532;19.078;2022-07-06T03:59:32;100310.41;;;16.62;100.00
62124;BME280;48110;47.532;19.078;2022-07-06T04:02:35;100309.59;;;16.61;100.00
62124;BME280;48110;47.532;19.078;2022-07-06T04:05:38;100310.19;;;16.57;100.00
62124;BME280;48110;47.532;19.078;2022-07-06T04:08:41;100319.72;;;16.59;100.00
62124;BME280;48110;47.532;19.078;2022-07-06T04:11:45;100308.34;;;16.77;100.00
62124;BME280;48110;47.532;19.078;2022-07-06T04:14:48;100324.00;;;16.73;100.00
62124;BME280;48110;47.532;19.078;2022-07-06T04:17:50;100324.59;;;16.88;100.00
62124;BME280;48110;47.532;19.078;2022-07-06T04:20:56;100306.62;;;16.95;100.00
62124;BME280;48110;47.532;19.078;2022-07-06T04:24:02;100300.44;;;17.02;100.00
62124;BME280;48110;47.532;19.078;2022-07-06T04:27:05;100309.88;;;17.04;100.00
62124;BME280;48110;47.532;19.078;2022-07-06T04:30:08;100315.88;;;17.06;100.00
62124;BME280;48110;47.532;19.078;2022-07-06T04:33:11;100311.72;;;17.10;100.00
62124;BME280;48110;47.532;19.078;2022-07-06T04:36:15;100308.59;;;17.20;100.00
62124;BME280;48110;47.532;19.078;2022-07-06T04:39:17;100301.78;;;17.24;100.00
62124;BME280;48110;47.532;19.078;2022-07-06T04:42:21;100307.31;;;17.35;100.00
62124;BME280;48110;47.532;19.078;2022-07-06T04:45:23;100303.62;;;17.30;100.00
62124;BME280;48110;47.532;19.078;2022-07-06T04:48:26;100307.47;;;17.47;100.00
62124;BME280;48110;47.532;19.078;2022-07-06T04:51:29;100301.87;;;17.49;100.00
62124;BME280;48110;47.532;19.078;2022-07-06T04:54:33;100303.69;;;17.55;100.00
62124;BME280;48110;47.532;19.078;2022-07-06T04:57:35;100323.75;;;17.52;100.00
62124;BME280;48110;47.532;19.078;2022-07-06T05:00:38;100327.19;;;17.66;100.00
62124;BME280;48110;47.532;19.078;2022-07-06T05:03:42;100327.38;;;17.71;100.00
62124;BME280;48110;47.532;19.078;2022-07-06T05:06:45;100323.03;;;17.76;100.00
62124;BME280;48110;47.532;19.078;2022-07-06T05:09:48;100331.97;;;17.95;99.28
62124;BME280;48110;47.532;19.078;2022-07-06T05:12:54;100324.84;;;18.07;98.27
62124;BME280;48110;47.532;19.078;2022-07-06T05:15:58;100326.88;;;18.12;97.35
62124;BME280;48110;47.532;19.078;2022-07-06T05:19:01;100326.41;;;18.21;97.83
62124;BME280;48110;47.532;19.078;2022-07-06T05:22:04;100333.53;;;18.34;96.41
62124;BME280;48110;47.532;19.078;2022-07-06T05:25:07;100340.28;;;18.43;95.37
62124;BME280;48110;47.532;19.078;2022-07-06T05:28:10;100343.38;;;18.40;95.81
62124;BME280;48110;47.532;19.078;2022-07-06T05:31:13;100351.94;;;18.62;95.20
62124;BME280;48110;47.532;19.078;2022-07-06T05:34:16;100353.91;;;18.73;93.91
62124;BME280;48110;47.532;19.078;2022-07-06T05:37:20;100343.22;;;18.85;93.25
62124;BME280;48110;47.532;19.078;2022-07-06T05:40:23;100339.53;;;18.79;93.31
62124;BME280;48110;47.532;19.078;2022-07-06T05:43:26;100348.38;;;18.86;92.65
62124;BME280;48110;47.532;19.078;2022-07-06T05:46:30;100354.50;;;18.93;92.58
62124;BME280;48110;47.532;19.078;2022-07-06T05:49:33;100351.59;;;19.13;90.75
62124;BME280;48110;47.532;19.078;2022-07-06T05:52:57;100347.94;;;19.26;90.46
62124;BME280;48110;47.532;19.078;2022-07-06T05:56:00;100351.81;;;19.30;89.65
62124;BME280;48110;47.532;19.078;2022-07-06T05:59:05;100356.75;;;19.51;88.37
62124;BME280;48110;47.532;19.078;2022-07-06T06:02:07;100349.78;;;19.62;87.44
62124;BME280;48110;47.532;19.078;2022-07-06T06:05:10;100362.06;;;19.58;87.89
62124;BME280;48110;47.532;19.078;2022-07-06T06:08:13;100364.50;;;19.77;86.97
62124;BME280;48110;47.532;19.078;2022-07-06T06:11:16;100382.09;;;19.91;85.48
62124;BME280;48110;47.532;19.078;2022-07-06T06:14:19;100378.38;;;19.92;86.17
62124;BME280;48110;47.532;19.078;2022-07-06T06:17:22;100384.88;;;20.15;84.79
62124;BME280;48110;47.532;19.078;2022-07-06T06:20:25;100383.56;;;20.06;84.24
62124;BME280;48110;47.532;19.078;2022-07-06T06:23:27;100393.88;;;20.09;83.86
62124;BME280;48110;47.532;19.078;2022-07-06T06:26:30;100393.47;;;20.23;83.87
62124;BME280;48110;47.532;19.078;2022-07-06T06:29:33;100386.84;;;20.37;83.88
62124;BME280;48110;47.532;19.078;2022-07-06T06:32:36;100386.50;;;20.46;82.19
62124;BME280;48110;47.532;19.078;2022-07-06T06:35:44;100379.34;;;20.39;82.17
62124;BME280;48110;47.532;19.078;2022-07-06T06:38:48;100378.66;;;20.56;80.89
62124;BME280;48110;47.532;19.078;2022-07-06T06:41:58;100373.50;;;20.77;80.84
62124;BME280;48110;47.532;19.078;2022-07-06T06:45:06;100388.41;;;20.80;80.48
62124;BME280;48110;47.532;19.078;2022-07-06T06:48:09;100390.16;;;20.86;79.60
62124;BME280;48110;47.532;19.078;2022-07-06T06:51:18;100394.38;;;21.05;78.64
62124;BME280;48110;47.532;19.078;2022-07-06T06:54:21;100407.06;;;21.05;78.41
62124;BME280;48110;47.532;19.078;2022-07-06T06:57:24;100404.34;;;21.05;78.64
62124;BME280;48110;47.532;19.078;2022-07-06T07:00:27;100405.84;;;21.12;78.48
62124;BME280;48110;47.532;19.078;2022-07-06T07:03:30;100403.84;;;21.43;76.93
62124;BME280;48110;47.532;19.078;2022-07-06T07:06:33;100399.63;;;21.47;75.85
62124;BME280;48110;47.532;19.078;2022-07-06T07:09:35;100410.84;;;21.55;74.74
62124;BME280;48110;47.532;19.078;2022-07-06T07:12:43;100403.47;;;21.62;75.29
62124;BME280;48110;47.532;19.078;2022-07-06T07:15:45;100417.00;;;21.79;74.66
62124;BME280;48110;47.532;19.078;2022-07-06T07:18:48;100408.88;;;21.91;73.28
62124;BME280;48110;47.532;19.078;2022-07-06T07:21:51;100412.75;;;21.95;73.44
62124;BME280;48110;47.532;19.078;2022-07-06T07:24:54;100403.28;;;22.09;73.16
62124;BME280;48110;47.532;19.078;2022-07-06T07:27:56;100414.50;;;22.46;70.97
62124;BME280;48110;47.532;19.078;2022-07-06T07:30:59;100417.53;;;22.49;70.32
62124;BME280;48110;47.532;19.078;2022-07-06T07:34:02;100419.72;;;22.52;70.36
62124;BME280;48110;47.532;19.078;2022-07-06T07:37:05;100418.94;;;22.85;69.38
62124;BME280;48110;47.532;19.078;2022-07-06T07:40:08;100425.25;;;23.29;67.41
62124;BME280;48110;47.532;19.078;2022-07-06T07:43:11;100426.00;;;23.85;66.09
62124;BME280;48110;47.532;19.078;2022-07-06T07:46:13;100424.22;;;24.17;62.66
62124;BME280;48110;47.532;19.078;2022-07-06T07:49:16;100422.75;;;24.63;61.80
62124;BME280;48110;47.532;19.078;2022-07-06T07:52:23;100420.37;;;25.09;59.22
62124;BME280;48110;47.532;19.078;2022-07-06T07:55:25;100426.00;;;26.17;56.27
62124;BME280;48110;47.532;19.078;2022-07-06T07:58:42;100426.25;;;26.10;55.21
62124;BME280;48110;47.532;19.078;2022-07-06T08:01:46;100417.19;;;25.69;55.30
62124;BME280;48110;47.532;19.078;2022-07-06T08:04:49;100427.69;;;25.50;53.86
62124;BME280;48110;47.532;19.078;2022-07-06T08:07:51;100430.37;;;25.45;53.41
62124;BME280;48110;47.532;19.078;2022-07-06T08:10:54;100427.66;;;26.18;51.30
62124;BME280;48110;47.532;19.078;2022-07-06T08:14:17;100429.91;;;26.66;49.89
62124;BME280;48110;47.532;19.078;2022-07-06T08:17:20;100424.34;;;27.32;48.61
62124;BME280;48110;47.532;19.078;2022-07-06T08:20:23;100429.75;;;27.62;47.08
62124;BME280;48110;47.532;19.078;2022-07-06T08:23:26;100434.63;;;28.20;45.01
62124;BME280;48110;47.532;19.078;2022-07-06T08:26:29;100424.88;;;28.47;44.56
62124;BME280;48110;47.532;19.078;2022-07-06T08:29:33;100431.06;;;28.24;43.82
62124;BME280;48110;47.532;19.078;2022-07-06T08:32:42;100443.78;;;28.39;44.62
62124;BME280;48110;47.532;19.078;2022-07-06T08:36:05;100437.78;;;28.76;43.52
62124;BME280;48110;47.532;19.078;2022-07-06T08:39:08;100442.91;;;30.25;41.27
62124;BME280;48110;47.532;19.078;2022-07-06T08:42:12;100446.56;;;30.72;38.42
62124;BME280;48110;47.532;19.078;2022-07-06T08:45:16;100451.84;;;28.15;42.81
62124;BME280;48110;47.532;19.078;2022-07-06T08:48:22;100449.22;;;29.83;39.08
62124;BME280;48110;47.532;19.078;2022-07-06T08:51:25;100451.88;;;30.49;38.66
62124;BME280;48110;47.532;19.078;2022-07-06T08:54:32;100445.41;;;29.08;39.38
62124;BME280;48110;47.532;19.078;2022-07-06T08:57:35;100439.53;;;29.19;39.08
62124;BME280;48110;47.532;19.078;2022-07-06T09:00:39;100440.81;;;30.36;38.01
62124;BME280;48110;47.532;19.078;2022-07-06T09:03:43;100437.59;;;31.44;35.58
62124;BME280;48110;47.532;19.078;2022-07-06T09:06:49;100437.88;;;31.84;35.48
62124;BME280;48110;47.532;19.078;2022-07-06T09:09:52;100436.22;;;30.69;37.21
62124;BME280;48110;47.532;19.078;2022-07-06T09:13:06;100435.03;;;31.07;36.04
62124;BME280;48110;47.532;19.078;2022-07-06T09:16:14;100437.16;;;31.24;35.11
62124;BME280;48110;47.532;19.078;2022-07-06T09:19:45;100448.25;;;30.86;36.01
62124;BME280;48110;47.532;19.078;2022-07-06T09:22:48;100434.94;;;32.30;34.51
62124;BME280;48110;47.532;19.078;2022-07-06T09:25:54;100428.91;;;31.92;34.85
62124;BME280;48110;47.532;19.078;2022-07-06T09:28:58;100421.69;;;31.00;35.14
62124;BME280;48110;47.532;19.078;2022-07-06T09:32:03;100436.81;;;32.07;33.04
62124;BME280;48110;47.532;19.078;2022-07-06T09:35:19;100427.56;;;33.45;31.51
62124;BME280;48110;47.532;19.078;2022-07-06T09:38:25;100428.50;;;33.80;30.39
62124;BME280;48110;47.532;19.078;2022-07-06T09:41:32;100428.81;;;31.97;32.51
62124;BME280;48110;47.532;19.078;2022-07-06T09:44:40;100438.56;;;32.03;33.37
62124;BME280;48110;47.532;19.078;2022-07-06T09:47:47;100426.16;;;32.86;31.79
62124;BME280;48110;47.532;19.078;2022-07-06T09:50:58;100430.47;;;31.84;32.66
62124;BME280;48110;47.532;19.078;2022-07-06T09:54:05;100435.12;;;31.16;33.64
62124;BME280;48110;47.532;19.078;2022-07-06T09:57:08;100433.16;;;32.70;32.08
62124;BME280;48110;47.532;19.078;2022-07-06T10:00:12;100437.09;;;33.39;30.07
62124;BME280;48110;47.532;19.078;2022-07-06T10:03:18;100432.06;;;34.93;27.50
62124;BME280;48110;47.532;19.078;2022-07-06T10:06:20;100434.22;;;31.47;33.07
62124;BME280;48110;47.532;19.078;2022-07-06T10:09:25;100423.41;;;33.17;30.71
62124;BME280;48110;47.532;19.078;2022-07-06T10:12:28;100425.34;;;32.41;30.80
62124;BME280;48110;47.532;19.078;2022-07-06T10:15:32;100435.09;;;32.69;30.20
62124;BME280;48110;47.532;19.078;2022-07-06T10:18:35;100427.63;;;32.92;29.69
62124;BME280;48110;47.532;19.078;2022-07-06T10:21:40;100421.09;;;32.80;30.51
62124;BME280;48110;47.532;19.078;2022-07-06T10:24:43;100423.53;;;32.37;30.51
62124;BME280;48110;47.532;19.078;2022-07-06T10:27:47;100426.75;;;32.16;30.99
62124;BME280;48110;47.532;19.078;2022-07-06T10:30:50;100417.38;;;31.54;31.39
62124;BME280;48110;47.532;19.078;2022-07-06T10:33:53;100422.78;;;31.59;31.68
62124;BME280;48110;47.532;19.078;2022-07-06T10:36:56;100431.88;;;32.67;28.51
62124;BME280;48110;47.532;19.078;2022-07-06T10:40:00;100421.19;;;32.66;28.61
62124;BME280;48110;47.532;19.078;2022-07-06T10:43:21;100422.84;;;34.63;26.10
62124;BME280;48110;47.532;19.078;2022-07-06T10:46:28;100423.22;;;35.16;24.40
62124;BME280;48110;47.532;19.078;2022-07-06T10:49:31;100430.81;;;33.47;26.56
62124;BME280;48110;47.532;19.078;2022-07-06T10:52:58;100428.00;;;34.99;24.99
62124;BME280;48110;47.532;19.078;2022-07-06T10:56:09;100432.22;;;34.87;24.87
62124;BME280;48110;47.532;19.078;2022-07-06T10:59:17;100439.22;;;33.51;25.04
62124;BME280;48110;47.532;19.078;2022-07-06T11:02:22;100427.72;;;34.05;24.14
62124;BME280;48110;47.532;19.078;2022-07-06T11:05:41;100420.91;;;34.72;24.36
62124;BME280;48110;47.532;19.078;2022-07-06T11:09:08;100424.75;;;32.97;26.62
62124;BME280;48110;47.532;19.078;2022-07-06T11:12:17;100431.06;;;36.23;22.39
62124;BME280;48110;47.532;19.078;2022-07-06T11:18:50;100415.09;;;33.96;22.79
62124;BME280;48110;47.532;19.078;2022-07-06T11:22:08;100412.91;;;36.55;20.69
62124;BME280;48110;47.532;19.078;2022-07-06T11:25:13;100411.34;;;34.52;22.06
62124;BME280;48110;47.532;19.078;2022-07-06T11:28:18;100415.19;;;34.94;22.23
62124;BME280;48110;47.532;19.078;2022-07-06T11:31:22;100408.53;;;36.12;20.37
62124;BME280;48110;47.532;19.078;2022-07-06T11:34:27;100416.28;;;35.48;21.75
62124;BME280;48110;47.532;19.078;2022-07-06T11:37:30;100411.72;;;35.82;21.48
62124;BME280;48110;47.532;19.078;2022-07-06T11:40:37;100426.94;;;35.29;21.75
62124;BME280;48110;47.532;19.078;2022-07-06T11:43:44;100411.19;;;33.97;21.55
62124;BME280;48110;47.532;19.078;2022-07-06T11:46:48;100411.72;;;35.14;20.97
62124;BME280;48110;47.532;19.078;2022-07-06T11:49:51;100411.06;;;36.05;20.41
62124;BME280;48110;47.532;19.078;2022-07-06T11:52:55;100421.13;;;34.41;22.52
62124;BME280;48110;47.532;19.078;2022-07-06T11:56:02;100416.16;;;32.68;24.69
62124;BME280;48110;47.532;19.078;2022-07-06T11:59:06;100416.91;;;34.18;23.25
62124;BME280;48110;47.532;19.078;2022-07-06T12:02:14;100412.19;;;35.84;21.38
62124;BME280;48110;47.532;19.078;2022-07-06T12:05:30;100422.66;;;35.69;21.46
62124;BME280;48110;47.532;19.078;2022-07-06T12:08:48;100427.88;;;35.33;21.71
62124;BME280;48110;47.532;19.078;2022-07-06T12:11:51;100411.44;;;35.74;20.90
62124;BME280;48110;47.532;19.078;2022-07-06T12:14:54;100412.03;;;34.49;22.09
62124;BME280;48110;47.532;19.078;2022-07-06T12:17:57;100410.13;;;32.57;24.04
62124;BME280;48110;47.532;19.078;2022-07-06T12:20:59;100403.00;;;30.56;26.77
62124;BME280;48110;47.532;19.078;2022-07-06T12:24:06;100412.50;;;30.27;27.73
62124;BME280;48110;47.532;19.078;2022-07-06T12:27:15;100421.97;;;32.89;24.55
62124;BME280;48110;47.532;19.078;2022-07-06T12:30:19;100420.44;;;34.53;22.40
62124;BME280;48110;47.532;19.078;2022-07-06T12:33:25;100406.78;;;34.82;21.85
62124;BME280;48110;47.532;19.078;2022-07-06T12:36:31;100416.87;;;34.00;23.08
62124;BME280;48110;47.532;19.078;2022-07-06T12:39:46;100415.78;;;32.83;23.05
62124;BME280;48110;47.532;19.078;2022-07-06T12:42:51;100411.03;;;33.93;22.09
62124;BME280;48110;47.532;19.078;2022-07-06T12:45:54;100406.34;;;38.02;18.30
62124;BME280;48110;47.532;19.078;2022-07-06T12:49:01;100396.00;;;34.25;21.37
62124;BME280;48110;47.532;19.078;2022-07-06T12:52:14;100406.59;;;35.71;19.42
62124;BME280;48110;47.532;19.078;2022-07-06T12:55:25;100414.78;;;36.30;18.47
62124;BME280;48110;47.532;19.078;2022-07-06T12:58:28;100413.06;;;37.16;18.01
62124;BME280;48110;47.532;19.078;2022-07-06T13:01:31;100396.91;;;35.86;18.47
62124;BME280;48110;47.532;19.078;2022-07-06T13:04:34;100403.88;;;35.84;19.29
62124;BME280;48110;47.532;19.078;2022-07-06T13:07:43;100401.62;;;33.69;20.67
62124;BME280;48110;47.532;19.078;2022-07-06T13:10:46;100416.66;;;31.62;23.41
62124;BME280;48110;47.532;19.078;2022-07-06T13:13:49;100406.81;;;33.79;20.67
62124;BME280;48110;47.532;19.078;2022-07-06T13:16:53;100397.44;;;34.48;20.04
62124;BME280;48110;47.532;19.078;2022-07-06T13:19:56;100393.69;;;34.70;19.58
62124;BME280;48110;47.532;19.078;2022-07-06T13:22:59;100394.72;;;34.23;20.27
62124;BME280;48110;47.532;19.078;2022-07-06T13:26:04;100394.22;;;35.02;19.49
62124;BME280;48110;47.532;19.078;2022-07-06T13:29:09;100397.81;;;35.02;19.61
62124;BME280;48110;47.532;19.078;2022-07-06T13:32:13;100411.25;;;37.08;17.84
62124;BME280;48110;47.532;19.078;2022-07-06T13:35:16;100407.03;;;36.56;18.70
62124;BME280;48110;47.532;19.078;2022-07-06T13:38:20;100390.75;;;36.43;20.05
62124;BME280;48110;47.532;19.078;2022-07-06T13:41:23;100403.78;;;36.22;21.26
62124;BME280;48110;47.532;19.078;2022-07-06T13:44:26;100397.81;;;35.02;23.28
62124;BME280;48110;47.532;19.078;2022-07-06T13:47:28;100405.84;;;36.78;21.24
62124;BME280;48110;47.532;19.078;2022-07-06T13:50:32;100392.59;;;35.77;21.59
62124;BME280;48110;47.532;19.078;2022-07-06T13:53:35;100402.41;;;35.65;20.91
62124;BME280;48110;47.532;19.078;2022-07-06T13:56:39;100410.28;;;35.76;20.76
62124;BME280;48110;47.532;19.078;2022-07-06T13:59:41;100413.87;;;36.38;20.30
62124;BME280;48110;47.532;19.078;2022-07-06T14:02:45;100411.84;;;36.27;20.74
62124;BME280;48110;47.532;19.078;2022-07-06T14:05:50;100396.78;;;34.69;21.69
62124;BME280;48110;47.532;19.078;2022-07-06T14:08:53;100396.97;;;34.12;21.72
62124;BME280;48110;47.532;19.078;2022-07-06T14:11:56;100398.91;;;34.12;21.59
62124;BME280;48110;47.532;19.078;2022-07-06T14:14:59;100406.50;;;34.75;21.36
62124;BME280;48110;47.532;19.078;2022-07-06T14:18:02;100413.66;;;35.22;20.26
62124;BME280;48110;47.532;19.078;2022-07-06T14:21:05;100403.69;;;34.92;21.01
62124;BME280;48110;47.532;19.078;2022-07-06T14:24:12;100417.59;;;36.22;20.02
62124;BME280;48110;47.532;19.078;2022-07-06T14:27:14;100411.06;;;34.19;21.62
62124;BME280;48110;47.532;19.078;2022-07-06T14:30:19;100403.13;;;30.97;25.32
62124;BME280;48110;47.532;19.078;2022-07-06T14:33:21;100399.16;;;29.83;27.72
62124;BME280;48110;47.532;19.078;2022-07-06T14:36:24;100393.34;;;30.08;27.29
62124;BME280;48110;47.532;19.078;2022-07-06T14:39:27;100394.19;;;32.10;25.08
62124;BME280;48110;47.532;19.078;2022-07-06T14:42:32;100398.25;;;33.89;22.51
62124;BME280;48110;47.532;19.078;2022-07-06T14:45:35;100404.94;;;35.41;20.98
62124;BME280;48110;47.532;19.078;2022-07-06T14:48:37;100404.97;;;36.12;19.80
62124;BME280;48110;47.532;19.078;2022-07-06T14:51:40;100398.06;;;34.54;21.84
62124;BME280;48110;47.532;19.078;2022-07-06T14:54:43;100403.25;;;37.06;18.77
62124;BME280;48110;47.532;19.078;2022-07-06T14:57:46;100409.22;;;35.68;19.65
62124;BME280;48110;47.532;19.078;2022-07-06T15:00:49;100397.72;;;37.06;18.31
62124;BME280;48110;47.532;19.078;2022-07-06T15:04:00;100385.31;;;37.12;18.13
62124;BME280;48110;47.532;19.078;2022-07-06T15:07:03;100399.81;;;37.58;17.91
62124;BME280;48110;47.532;19.078;2022-07-06T15:10:07;100402.38;;;37.26;17.33
62124;BME280;48110;47.532;19.078;2022-07-06T15:13:11;100405.00;;;36.66;17.98
62124;BME280;48110;47.532;19.078;2022-07-06T15:16:16;100406.19;;;36.65;18.02
62124;BME280;48110;47.532;19.078;2022-07-06T15:19:19;100408.12;;;34.33;19.60
62124;BME280;48110;47.532;19.078;2022-07-06T15:22:21;100394.38;;;33.33;20.55
62124;BME280;48110;47.532;19.078;2022-07-06T15:25:24;100399.22;;;32.66;21.43
62124;BME280;48110;47.532;19.078;2022-07-06T15:28:27;100394.22;;;34.46;19.75
62124;BME280;48110;47.532;19.078;2022-07-06T15:31:31;100394.47;;;30.90;23.40
62124;BME280;48110;47.532;19.078;2022-07-06T15:34:35;100396.41;;;29.16;25.89
62124;BME280;48110;47.532;19.078;2022-07-06T15:37:37;100398.94;;;28.84;25.83
62124;BME280;48110;47.532;19.078;2022-07-06T15:40:40;100392.03;;;28.58;26.34
62124;BME280;48110;47.532;19.078;2022-07-06T15:43:47;100394.31;;;28.50;26.40
62124;BME280;48110;47.532;19.078;2022-07-06T15:46:56;100394.72;;;28.63;26.45
62124;BME280;48110;47.532;19.078;2022-07-06T15:49:59;100394.22;;;28.61;26.44
62124;BME280;48110;47.532;19.078;2022-07-06T15:53:03;100391.22;;;28.57;26.80
62124;BME280;48110;47.532;19.078;2022-07-06T15:56:08;100400.41;;;28.71;26.83